sensor_id;sensor_type;location;lat;lon;timestamp;P1;durP1;ratioP1;P2;durP2;ratioP2
13309;SDS011;6723;48.256;16.402;2023-11-19T00:00:46;8.30;;;6.07;;
13309;SDS011;6723;48.256;16.402;2023-11-19T00:03:12;9.73;;;6.40;;
13309;SDS011;6723;48.256;16.402;2023-11-19T00:05:38;9.37;;;7.00;;
13309;SDS011;6723;48.256;16.402;2023-11-19T00:08:04;9.30;;;6.77;;
13309;SDS011;6723;48.256;16.402;2023-11-19T00:10:31;8.97;;;6.37;;
13309;SDS011;6723;48.256;16.402;2023-11-19T00:12:57;9.10;;;6.33;;
13309;SDS011;6723;48.256;16.402;2023-11-19T00:15:23;8.97;;;5.80;;
13309;SDS011;6723;48.256;16.402;2023-11-19T00:17:49;9.10;;;6.30;;
13309;SDS011;6723;48.256;16.402;2023-11-19T00:20:15;9.43;;;6.90;;
13309;SDS011;6723;48.256;16.402;2023-11-19T00:22:46;8.23;;;6.37;;
13309;SDS011;6723;48.256;16.402;2023-11-19T00:25:16;11.13;;;6.57;;
13309;SDS011;6723;48.256;16.402;2023-11-19T00:27:43;9.23;;;6.53;;
13309;SDS011;6723;48.256;16.402;2023-11-19T00:30:12;8.30;;;6.20;;
13309;SDS011;6723;48.256;16.402;2023-11-19T00:32:39;9.30;;;6.63;;
13309;SDS011;6723;48.256;16.402;2023-11-19T00:35:06;8.30;;;5.93;;
13309;SDS011;6723;48.256;16.402;2023-11-19T00:37:32;7.90;;;5.90;;
13309;SDS011;6723;48.256;16.402;2023-11-19T00:39:58;9.40;;;6.33;;
13309;SDS011;6723;48.256;16.402;2023-11-19T00:42:24;8.57;;;6.03;;
13309;SDS011;6723;48.256;16.402;2023-11-19T00:44:50;11.23;;;7.67;;
13309;SDS011;6723;48.256;16.402;2023-11-19T00:47:16;14.13;;;8.97;;
13309;SDS011;6723;48.256;16.402;2023-11-19T00:49:48;11.40;;;8.37;;
13309;SDS011;6723;48.256;16.402;2023-11-19T00:52:15;16.00;;;8.20;;
13309;SDS011;6723;48.256;16.402;2023-11-19T00:54:42;13.33;;;8.17;;
13309;SDS011;6723;48.256;16.402;2023-11-19T00:57:08;12.83;;;8.27;;
13309;SDS011;6723;48.256;16.402;2023-11-19T00:59:34;12.10;;;8.87;;
13309;SDS011;6723;48.256;16.402;2023-11-19T01:02:00;13.87;;;8.57;;
13309;SDS011;6723;48.256;16.402;2023-11-19T01:04:37;11.87;;;8.60;;
13309;SDS011;6723;48.256;16.402;2023-11-19T01:07:04;14.10;;;9.47;;
13309;SDS011;6723;48.256;16.402;2023-11-19T01:09:31;11.87;;;8.50;;
13309;SDS011;6723;48.256;16.402;2023-11-19T01:12:01;12.37;;;8.73;;
13309;SDS011;6723;48.256;16.402;2023-11-19T01:14:27;13.00;;;8.70;;
13309;SDS011;6723;48.256;16.402;2023-11-19T01:16:54;13.20;;;9.13;;
13309;SDS011;6723;48.256;16.402;2023-11-19T01:19:23;11.77;;;8.63;;
13309;SDS011;6723;48.256;16.402;2023-11-19T01:21:50;13.27;;;9.33;;
13309;SDS011;6723;48.256;16.402;2023-11-19T01:24:16;14.53;;;8.93;;
13309;SDS011;6723;48.256;16.402;2023-11-19T01:26:43;14.97;;;9.13;;
13309;SDS011;6723;48.256;16.402;2023-11-19T01:29:15;12.57;;;8.23;;
13309;SDS011;6723;48.256;16.402;2023-11-19T01:31:42;12.97;;;8.57;;
13309;SDS011;6723;48.256;16.402;2023-11-19T01:34:08;11.27;;;8.43;;
13309;SDS011;6723;48.256;16.402;2023-11-19T01:36:36;11.23;;;8.30;;
13309;SDS011;6723;48.256;16.402;2023-11-19T01:39:02;10.90;;;7.93;;
13309;SDS011;6723;48.256;16.402;2023-11-19T01:41:29;11.50;;;8.10;;
13309;SDS011;6723;48.256;16.402;2023-11-19T01:44:08;10.47;;;7.90;;
13309;SDS011;6723;48.256;16.402;2023-11-19T01:46:34;9.20;;;7.10;;
13309;SDS011;6723;48.256;16.402;2023-11-19T01:49:01;12.30;;;8.37;;
13309;SDS011;6723;48.256;16.402;2023-11-19T01:51:28;10.90;;;7.87;;
13309;SDS011;6723;48.256;16.402;2023-11-19T01:53:55;11.80;;;7.80;;
13309;SDS011;6723;48.256;16.402;2023-11-19T01:56:23;10.43;;;8.33;;
13309;SDS011;6723;48.256;16.402;2023-11-19T01:58:51;10.07;;;8.13;;
13309;SDS011;6723;48.256;16.402;2023-11-19T02:01:19;10.20;;;7.63;;
13309;SDS011;6723;48.256;16.402;2023-11-19T02:03:45;9.03;;;7.10;;
13309;SDS011;6723;48.256;16.402;2023-11-19T02:06:12;8.27;;;7.13;;
13309;SDS011;6723;48.256;16.402;2023-11-19T02:08:38;9.13;;;6.80;;
13309;SDS011;6723;48.256;16.402;2023-11-19T02:11:05;9.47;;;7.10;;
13309;SDS011;6723;48.256;16.402;2023-11-19T02:13:32;11.23;;;7.87;;
13309;SDS011;6723;48.256;16.402;2023-11-19T02:16:01;9.43;;;6.93;;
13309;SDS011;6723;48.256;16.402;2023-11-19T02:18:27;12.87;;;9.27;;
13309;SDS011;6723;48.256;16.402;2023-11-19T02:20:54;12.77;;;9.00;;
13309;SDS011;6723;48.256;16.402;2023-11-19T02:23:20;11.17;;;7.67;;
13309;SDS011;6723;48.256;16.402;2023-11-19T02:25:47;9.87;;;7.67;;
13309;SDS011;6723;48.256;16.402;2023-11-19T02:28:23;10.93;;;7.73;;
13309;SDS011;6723;48.256;16.402;2023-11-19T02:30:49;9.77;;;7.57;;
13309;SDS011;6723;48.256;16.402;2023-11-19T02:33:18;9.27;;;7.23;;
13309;SDS011;6723;48.256;16.402;2023-11-19T02:35:44;6.43;;;5.80;;
13309;SDS011;6723;48.256;16.402;2023-11-19T02:38:10;8.00;;;6.63;;
13309;SDS011;6723;48.256;16.402;2023-11-19T02:40:36;9.73;;;6.73;;
13309;SDS011;6723;48.256;16.402;2023-11-19T02:43:01;9.30;;;6.90;;
13309;SDS011;6723;48.256;16.402;2023-11-19T02:45:29;9.60;;;7.07;;
13309;SDS011;6723;48.256;16.402;2023-11-19T02:47:56;8.83;;;6.53;;
13309;SDS011;6723;48.256;16.402;2023-11-19T02:50:22;6.97;;;5.90;;
13309;SDS011;6723;48.256;16.402;2023-11-19T02:52:51;5.90;;;4.70;;
13309;SDS011;6723;48.256;16.402;2023-11-19T02:55:21;5.60;;;4.80;;
13309;SDS011;6723;48.256;16.402;2023-11-19T02:57:49;5.13;;;4.63;;
13309;SDS011;6723;48.256;16.402;2023-11-19T03:00:20;5.43;;;4.90;;
13309;SDS011;6723;48.256;16.402;2023-11-19T03:02:50;6.40;;;5.40;;
13309;SDS011;6723;48.256;16.402;2023-11-19T03:05:24;6.20;;;5.60;;
13309;SDS011;6723;48.256;16.402;2023-11-19T03:07:52;8.03;;;5.20;;
13309;SDS011;6723;48.256;16.402;2023-11-19T03:10:19;6.57;;;5.50;;
13309;SDS011;6723;48.256;16.402;2023-11-19T03:12:45;6.97;;;5.63;;
13309;SDS011;6723;48.256;16.402;2023-11-19T03:15:11;7.20;;;5.10;;
13309;SDS011;6723;48.256;16.402;2023-11-19T03:17:43;6.87;;;5.40;;
13309;SDS011;6723;48.256;16.402;2023-11-19T03:20:11;6.67;;;5.03;;
13309;SDS011;6723;48.256;16.402;2023-11-19T03:22:42;6.20;;;5.13;;
13309;SDS011;6723;48.256;16.402;2023-11-19T03:25:09;6.43;;;5.77;;
13309;SDS011;6723;48.256;16.402;2023-11-19T03:27:38;6.47;;;4.90;;
13309;SDS011;6723;48.256;16.402;2023-11-19T03:30:07;8.53;;;5.73;;
13309;SDS011;6723;48.256;16.402;2023-11-19T03:32:34;7.27;;;5.87;;
13309;SDS011;6723;48.256;16.402;2023-11-19T03:35:03;8.00;;;5.70;;
13309;SDS011;6723;48.256;16.402;2023-11-19T03:37:32;7.33;;;5.57;;
13309;SDS011;6723;48.256;16.402;2023-11-19T03:39:58;6.77;;;5.30;;
13309;SDS011;6723;48.256;16.402;2023-11-19T03:42:28;7.37;;;5.90;;
13309;SDS011;6723;48.256;16.402;2023-11-19T03:44:55;8.93;;;6.63;;
13309;SDS011;6723;48.256;16.402;2023-11-19T03:47:21;7.30;;;6.00;;
13309;SDS011;6723;48.256;16.402;2023-11-19T03:49:48;6.63;;;5.67;;
13309;SDS011;6723;48.256;16.402;2023-11-19T03:52:14;7.00;;;5.63;;
13309;SDS011;6723;48.256;16.402;2023-11-19T03:54:40;6.97;;;5.67;;
13309;SDS011;6723;48.256;16.402;2023-11-19T03:57:06;8.67;;;5.97;;
13309;SDS011;6723;48.256;16.402;2023-11-19T03:59:32;7.17;;;5.70;;
13309;SDS011;6723;48.256;16.402;2023-11-19T04:01:58;9.30;;;5.80;;
13309;SDS011;6723;48.256;16.402;2023-11-19T04:04:26;8.77;;;6.37;;
13309;SDS011;6723;48.256;16.402;2023-11-19T04:06:53;10.03;;;6.67;;
13309;SDS011;6723;48.256;16.402;2023-11-19T04:09:19;10.80;;;7.37;;
13309;SDS011;6723;48.256;16.402;2023-11-19T04:11:44;8.27;;;6.90;;
13309;SDS011;6723;48.256;16.402;2023-11-19T04:14:15;9.13;;;6.63;;
13309;SDS011;6723;48.256;16.402;2023-11-19T04:16:43;8.03;;;6.80;;
13309;SDS011;6723;48.256;16.402;2023-11-19T04:19:10;9.07;;;6.93;;
13309;SDS011;6723;48.256;16.402;2023-11-19T04:21:36;11.50;;;7.00;;
13309;SDS011;6723;48.256;16.402;2023-11-19T04:24:04;9.30;;;6.67;;
13309;SDS011;6723;48.256;16.402;2023-11-19T04:26:32;8.63;;;6.87;;
13309;SDS011;6723;48.256;16.402;2023-11-19T04:28:57;9.90;;;7.70;;
13309;SDS011;6723;48.256;16.402;2023-11-19T04:31:28;10.33;;;7.20;;
13309;SDS011;6723;48.256;16.402;2023-11-19T04:33:56;10.37;;;7.33;;
13309;SDS011;6723;48.256;16.402;2023-11-19T04:36:22;9.03;;;6.83;;
13309;SDS011;6723;48.256;16.402;2023-11-19T04:38:49;8.57;;;6.77;;
13309;SDS011;6723;48.256;16.402;2023-11-19T04:41:15;8.83;;;7.03;;
13309;SDS011;6723;48.256;16.402;2023-11-19T04:43:41;8.53;;;7.17;;
13309;SDS011;6723;48.256;16.402;2023-11-19T04:46:07;8.60;;;6.90;;
13309;SDS011;6723;48.256;16.402;2023-11-19T04:48:35;9.23;;;7.30;;
13309;SDS011;6723;48.256;16.402;2023-11-19T04:51:01;9.40;;;7.50;;
13309;SDS011;6723;48.256;16.402;2023-11-19T04:53:29;10.00;;;7.20;;
13309;SDS011;6723;48.256;16.402;2023-11-19T04:55:55;9.47;;;7.33;;
13309;SDS011;6723;48.256;16.402;2023-11-19T04:58:20;10.13;;;7.27;;
13309;SDS011;6723;48.256;16.402;2023-11-19T05:00:46;10.00;;;7.50;;
13309;SDS011;6723;48.256;16.402;2023-11-19T05:03:12;10.70;;;8.30;;
13309;SDS011;6723;48.256;16.402;2023-11-19T05:05:38;10.63;;;8.07;;
13309;SDS011;6723;48.256;16.402;2023-11-19T05:08:03;10.13;;;8.47;;
13309;SDS011;6723;48.256;16.402;2023-11-19T05:10:30;11.27;;;8.23;;
13309;SDS011;6723;48.256;16.402;2023-11-19T05:12:56;10.03;;;8.57;;
13309;SDS011;6723;48.256;16.402;2023-11-19T05:15:22;11.83;;;8.70;;
13309;SDS011;6723;48.256;16.402;2023-11-19T05:17:51;10.27;;;7.80;;
13309;SDS011;6723;48.256;16.402;2023-11-19T05:20:17;10.97;;;8.40;;
13309;SDS011;6723;48.256;16.402;2023-11-19T05:22:45;11.17;;;8.57;;
13309;SDS011;6723;48.256;16.402;2023-11-19T05:25:11;10.30;;;8.13;;
13309;SDS011;6723;48.256;16.402;2023-11-19T05:27:37;10.97;;;8.63;;
13309;SDS011;6723;48.256;16.402;2023-11-19T05:30:04;12.37;;;9.23;;
13309;SDS011;6723;48.256;16.402;2023-11-19T05:32:35;11.33;;;8.57;;
13309;SDS011;6723;48.256;16.402;2023-11-19T05:35:02;10.80;;;8.37;;
13309;SDS011;6723;48.256;16.402;2023-11-19T05:37:28;12.20;;;9.53;;
13309;SDS011;6723;48.256;16.402;2023-11-19T05:39:53;13.40;;;9.10;;
13309;SDS011;6723;48.256;16.402;2023-11-19T05:42:19;11.47;;;9.00;;
13309;SDS011;6723;48.256;16.402;2023-11-19T05:44:45;11.67;;;9.13;;
13309;SDS011;6723;48.256;16.402;2023-11-19T05:47:11;13.80;;;9.20;;
13309;SDS011;6723;48.256;16.402;2023-11-19T05:49:37;11.90;;;8.97;;
13309;SDS011;6723;48.256;16.402;2023-11-19T05:52:03;11.77;;;8.93;;
13309;SDS011;6723;48.256;16.402;2023-11-19T05:54:32;11.93;;;8.73;;
13309;SDS011;6723;48.256;16.402;2023-11-19T05:57:03;11.60;;;9.10;;
13309;SDS011;6723;48.256;16.402;2023-11-19T05:59:30;12.23;;;9.00;;
13309;SDS011;6723;48.256;16.402;2023-11-19T06:01:57;13.13;;;9.47;;
13309;SDS011;6723;48.256;16.402;2023-11-19T06:04:23;12.07;;;9.43;;
13309;SDS011;6723;48.256;16.402;2023-11-19T06:06:49;11.57;;;8.90;;
13309;SDS011;6723;48.256;16.402;2023-11-19T06:09:14;13.90;;;9.80;;
13309;SDS011;6723;48.256;16.402;2023-11-19T06:11:40;11.53;;;9.50;;
13309;SDS011;6723;48.256;16.402;2023-11-19T06:14:06;13.60;;;9.43;;
13309;SDS011;6723;48.256;16.402;2023-11-19T06:16:32;12.87;;;9.40;;
13309;SDS011;6723;48.256;16.402;2023-11-19T06:18:58;12.80;;;9.23;;
13309;SDS011;6723;48.256;16.402;2023-11-19T06:21:24;14.10;;;9.97;;
13309;SDS011;6723;48.256;16.402;2023-11-19T06:23:50;14.73;;;10.53;;
13309;SDS011;6723;48.256;16.402;2023-11-19T06:26:17;14.73;;;11.20;;
13309;SDS011;6723;48.256;16.402;2023-11-19T06:28:43;14.83;;;11.07;;
13309;SDS011;6723;48.256;16.402;2023-11-19T06:31:09;15.80;;;11.20;;
13309;SDS011;6723;48.256;16.402;2023-11-19T06:33:35;17.23;;;11.43;;
13309;SDS011;6723;48.256;16.402;2023-11-19T06:36:01;14.53;;;11.43;;
13309;SDS011;6723;48.256;16.402;2023-11-19T06:38:27;14.97;;;11.50;;
13309;SDS011;6723;48.256;16.402;2023-11-19T06:40:52;18.43;;;11.93;;
13309;SDS011;6723;48.256;16.402;2023-11-19T06:43:18;16.83;;;12.67;;
13309;SDS011;6723;48.256;16.402;2023-11-19T06:45:44;19.27;;;12.50;;
13309;SDS011;6723;48.256;16.402;2023-11-19T06:48:10;16.77;;;12.77;;
13309;SDS011;6723;48.256;16.402;2023-11-19T06:50:36;19.17;;;12.43;;
13309;SDS011;6723;48.256;16.402;2023-11-19T06:53:01;17.93;;;12.10;;
13309;SDS011;6723;48.256;16.402;2023-11-19T06:55:27;21.30;;;11.73;;
13309;SDS011;6723;48.256;16.402;2023-11-19T06:57:53;15.73;;;11.53;;
13309;SDS011;6723;48.256;16.402;2023-11-19T07:00:19;16.13;;;11.40;;
13309;SDS011;6723;48.256;16.402;2023-11-19T07:02:45;16.37;;;11.73;;
13309;SDS011;6723;48.256;16.402;2023-11-19T07:05:11;14.70;;;11.20;;
13309;SDS011;6723;48.256;16.402;2023-11-19T07:07:38;16.80;;;11.60;;
13309;SDS011;6723;48.256;16.402;2023-11-19T07:10:05;15.80;;;11.43;;
13309;SDS011;6723;48.256;16.402;2023-11-19T07:12:34;15.10;;;12.00;;
13309;SDS011;6723;48.256;16.402;2023-11-19T07:15:01;14.47;;;10.90;;
13309;SDS011;6723;48.256;16.402;2023-11-19T07:17:28;15.07;;;11.80;;
13309;SDS011;6723;48.256;16.402;2023-11-19T07:19:55;16.43;;;11.80;;
13309;SDS011;6723;48.256;16.402;2023-11-19T07:22:24;18.13;;;12.00;;
13309;SDS011;6723;48.256;16.402;2023-11-19T07:24:51;16.00;;;12.00;;
13309;SDS011;6723;48.256;16.402;2023-11-19T07:27:18;13.83;;;11.30;;
13309;SDS011;6723;48.256;16.402;2023-11-19T07:29:44;16.57;;;11.40;;
13309;SDS011;6723;48.256;16.402;2023-11-19T07:32:11;15.93;;;12.13;;
13309;SDS011;6723;48.256;16.402;2023-11-19T07:34:38;13.03;;;10.27;;
13309;SDS011;6723;48.256;16.402;2023-11-19T07:37:05;14.30;;;10.80;;
13309;SDS011;6723;48.256;16.402;2023-11-19T07:39:30;14.47;;;10.10;;
13309;SDS011;6723;48.256;16.402;2023-11-19T07:41:56;15.53;;;11.80;;
13309;SDS011;6723;48.256;16.402;2023-11-19T07:44:22;12.60;;;10.23;;
13309;SDS011;6723;48.256;16.402;2023-11-19T07:46:48;14.33;;;10.50;;
13309;SDS011;6723;48.256;16.402;2023-11-19T07:49:13;13.87;;;9.77;;
13309;SDS011;6723;48.256;16.402;2023-11-19T07:51:39;13.07;;;10.00;;
13309;SDS011;6723;48.256;16.402;2023-11-19T07:54:05;11.63;;;9.03;;
13309;SDS011;6723;48.256;16.402;2023-11-19T07:56:32;13.07;;;9.20;;
13309;SDS011;6723;48.256;16.402;2023-11-19T07:59:00;13.13;;;9.60;;
13309;SDS011;6723;48.256;16.402;2023-11-19T08:01:27;12.73;;;9.97;;
13309;SDS011;6723;48.256;16.402;2023-11-19T08:03:52;13.37;;;10.47;;
13309;SDS011;6723;48.256;16.402;2023-11-19T08:06:18;12.83;;;9.97;;
13309;SDS011;6723;48.256;16.402;2023-11-19T08:08:45;11.73;;;9.53;;
13309;SDS011;6723;48.256;16.402;2023-11-19T08:11:10;11.97;;;9.13;;
13309;SDS011;6723;48.256;16.402;2023-11-19T08:13:36;9.53;;;7.80;;
13309;SDS011;6723;48.256;16.402;2023-11-19T08:16:02;10.27;;;7.97;;
13309;SDS011;6723;48.256;16.402;2023-11-19T08:18:27;10.60;;;8.03;;
13309;SDS011;6723;48.256;16.402;2023-11-19T08:20:53;12.70;;;8.43;;
13309;SDS011;6723;48.256;16.402;2023-11-19T08:23:21;10.20;;;8.40;;
13309;SDS011;6723;48.256;16.402;2023-11-19T08:25:48;10.87;;;8.10;;
13309;SDS011;6723;48.256;16.402;2023-11-19T08:28:14;10.37;;;7.77;;
13309;SDS011;6723;48.256;16.402;2023-11-19T08:30:40;9.37;;;7.70;;
13309;SDS011;6723;48.256;16.402;2023-11-19T08:33:06;10.07;;;7.20;;
13309;SDS011;6723;48.256;16.402;2023-11-19T08:35:32;9.37;;;8.17;;
13309;SDS011;6723;48.256;16.402;2023-11-19T08:37:58;10.47;;;7.70;;
13309;SDS011;6723;48.256;16.402;2023-11-19T08:40:24;8.67;;;7.40;;
13309;SDS011;6723;48.256;16.402;2023-11-19T08:42:52;8.87;;;7.37;;
13309;SDS011;6723;48.256;16.402;2023-11-19T08:45:18;8.47;;;7.27;;
13309;SDS011;6723;48.256;16.402;2023-11-19T08:47:44;9.40;;;7.70;;
13309;SDS011;6723;48.256;16.402;2023-11-19T08:50:10;18.50;;;13.73;;
13309;SDS011;6723;48.256;16.402;2023-11-19T08:52:36;9.37;;;7.40;;
13309;SDS011;6723;48.256;16.402;2023-11-19T08:55:03;24.63;;;15.40;;
13309;SDS011;6723;48.256;16.402;2023-11-19T08:57:30;16.50;;;11.07;;
13309;SDS011;6723;48.256;16.402;2023-11-19T08:59:57;11.73;;;7.53;;
13309;SDS011;6723;48.256;16.402;2023-11-19T09:02:23;10.77;;;8.47;;
13309;SDS011;6723;48.256;16.402;2023-11-19T09:04:49;17.27;;;11.13;;
13309;SDS011;6723;48.256;16.402;2023-11-19T09:07:17;14.57;;;9.57;;
13309;SDS011;6723;48.256;16.402;2023-11-19T09:09:43;17.00;;;11.70;;
13309;SDS011;6723;48.256;16.402;2023-11-19T09:12:09;9.43;;;7.73;;
13309;SDS011;6723;48.256;16.402;2023-11-19T09:14:34;9.50;;;7.40;;
13309;SDS011;6723;48.256;16.402;2023-11-19T09:17:00;8.00;;;6.97;;
13309;SDS011;6723;48.256;16.402;2023-11-19T09:19:26;9.90;;;7.57;;
13309;SDS011;6723;48.256;16.402;2023-11-19T09:21:52;8.70;;;6.70;;
13309;SDS011;6723;48.256;16.402;2023-11-19T09:24:18;8.77;;;6.60;;
13309;SDS011;6723;48.256;16.402;2023-11-19T09:26:44;9.13;;;7.47;;
13309;SDS011;6723;48.256;16.402;2023-11-19T09:29:10;7.50;;;5.93;;
13309;SDS011;6723;48.256;16.402;2023-11-19T09:31:39;6.83;;;5.47;;
13309;SDS011;6723;48.256;16.402;2023-11-19T09:34:05;6.63;;;5.83;;
13309;SDS011;6723;48.256;16.402;2023-11-19T09:36:31;7.70;;;6.13;;
13309;SDS011;6723;48.256;16.402;2023-11-19T09:38:57;7.27;;;5.20;;
13309;SDS011;6723;48.256;16.402;2023-11-19T09:41:25;6.53;;;5.47;;
13309;SDS011;6723;48.256;16.402;2023-11-19T09:43:53;5.93;;;5.13;;
13309;SDS011;6723;48.256;16.402;2023-11-19T09:46:20;7.23;;;5.90;;
13309;SDS011;6723;48.256;16.402;2023-11-19T09:48:49;6.20;;;5.60;;
13309;SDS011;6723;48.256;16.402;2023-11-19T09:51:19;7.17;;;6.37;;
13309;SDS011;6723;48.256;16.402;2023-11-19T09:53:47;6.83;;;6.10;;
13309;SDS011;6723;48.256;16.402;2023-11-19T09:56:14;6.83;;;6.13;;
13309;SDS011;6723;48.256;16.402;2023-11-19T09:58:42;6.53;;;5.67;;
13309;SDS011;6723;48.256;16.402;2023-11-19T10:01:08;7.13;;;5.80;;
13309;SDS011;6723;48.256;16.402;2023-11-19T10:03:37;9.77;;;6.63;;
13309;SDS011;6723;48.256;16.402;2023-11-19T10:06:08;10.23;;;6.87;;
13309;SDS011;6723;48.256;16.402;2023-11-19T10:08:36;8.27;;;5.63;;
13309;SDS011;6723;48.256;16.402;2023-11-19T10:11:04;8.37;;;7.23;;
13309;SDS011;6723;48.256;16.402;2023-11-19T10:13:35;6.53;;;5.20;;
13309;SDS011;6723;48.256;16.402;2023-11-19T10:16:07;7.73;;;6.57;;
13309;SDS011;6723;48.256;16.402;2023-11-19T10:18:36;10.03;;;8.00;;
13309;SDS011;6723;48.256;16.402;2023-11-19T10:21:06;6.03;;;5.37;;
13309;SDS011;6723;48.256;16.402;2023-11-19T10:26:14;7.40;;;5.37;;
13309;SDS011;6723;48.256;16.402;2023-11-19T10:28:40;9.57;;;7.70;;
13309;SDS011;6723;48.256;16.402;2023-11-19T10:31:09;5.93;;;5.33;;
13309;SDS011;6723;48.256;16.402;2023-11-19T10:33:35;6.57;;;5.13;;
13309;SDS011;6723;48.256;16.402;2023-11-19T10:36:01;5.90;;;5.30;;
13309;SDS011;6723;48.256;16.402;2023-11-19T10:38:26;5.43;;;4.87;;
13309;SDS011;6723;48.256;16.402;2023-11-19T10:40:53;5.63;;;5.00;;
13309;SDS011;6723;48.256;16.402;2023-11-19T10:43:19;6.30;;;5.30;;
13309;SDS011;6723;48.256;16.402;2023-11-19T10:45:49;6.20;;;5.60;;
13309;SDS011;6723;48.256;16.402;2023-11-19T10:48:16;7.23;;;5.37;;
13309;SDS011;6723;48.256;16.402;2023-11-19T10:50:44;6.10;;;5.33;;
13309;SDS011;6723;48.256;16.402;2023-11-19T10:53:11;5.17;;;4.67;;
13309;SDS011;6723;48.256;16.402;2023-11-19T10:55:44;5.53;;;4.80;;
13309;SDS011;6723;48.256;16.402;2023-11-19T10:58:13;6.63;;;5.10;;
13309;SDS011;6723;48.256;16.402;2023-11-19T11:00:45;9.33;;;5.93;;
13309;SDS011;6723;48.256;16.402;2023-11-19T11:03:24;8.43;;;5.67;;
13309;SDS011;6723;48.256;16.402;2023-11-19T11:05:52;6.13;;;5.53;;
13309;SDS011;6723;48.256;16.402;2023-11-19T11:08:19;7.57;;;5.87;;
13309;SDS011;6723;48.256;16.402;2023-11-19T11:10:52;5.90;;;5.13;;
13309;SDS011;6723;48.256;16.402;2023-11-19T11:13:22;6.00;;;5.40;;
13309;SDS011;6723;48.256;16.402;2023-11-19T11:15:55;6.73;;;5.33;;
13309;SDS011;6723;48.256;16.402;2023-11-19T11:18:23;5.20;;;4.70;;
13309;SDS011;6723;48.256;16.402;2023-11-19T11:20:58;5.53;;;4.73;;
13309;SDS011;6723;48.256;16.402;2023-11-19T11:30:08;6.67;;;5.10;;
13309;SDS011;6723;48.256;16.402;2023-11-19T11:32:20;6.33;;;4.90;;
13309;SDS011;6723;48.256;16.402;2023-11-19T11:37:18;7.63;;;5.17;;
13309;SDS011;6723;48.256;16.402;2023-11-19T11:39:51;6.13;;;5.27;;
13309;SDS011;6723;48.256;16.402;2023-11-19T11:45:03;5.13;;;4.47;;
13309;SDS011;6723;48.256;16.402;2023-11-19T11:50:29;5.20;;;4.70;;
13309;SDS011;6723;48.256;16.402;2023-11-19T11:56:05;6.20;;;5.20;;
13309;SDS011;6723;48.256;16.402;2023-11-19T11:58:21;6.43;;;5.63;;
13309;SDS011;6723;48.256;16.402;2023-11-19T12:00:51;6.60;;;5.37;;
13309;SDS011;6723;48.256;16.402;2023-11-19T12:03:19;5.53;;;5.03;;
13309;SDS011;6723;48.256;16.402;2023-11-19T12:05:49;5.60;;;5.07;;
13309;SDS011;6723;48.256;16.402;2023-11-19T12:08:18;7.70;;;5.73;;
13309;SDS011;6723;48.256;16.402;2023-11-19T12:10:49;8.00;;;6.50;;
13309;SDS011;6723;48.256;16.402;2023-11-19T12:13:21;7.93;;;6.97;;
13309;SDS011;6723;48.256;16.402;2023-11-19T12:18:32;10.23;;;8.40;;
13309;SDS011;6723;48.256;16.402;2023-11-19T12:20:58;9.10;;;7.63;;
13309;SDS011;6723;48.256;16.402;2023-11-19T12:23:28;10.37;;;8.13;;
13309;SDS011;6723;48.256;16.402;2023-11-19T12:25:55;9.57;;;7.87;;
13309;SDS011;6723;48.256;16.402;2023-11-19T12:28:21;12.37;;;9.13;;
13309;SDS011;6723;48.256;16.402;2023-11-19T12:30:49;10.23;;;8.87;;
13309;SDS011;6723;48.256;16.402;2023-11-19T12:33:16;10.60;;;8.97;;
13309;SDS011;6723;48.256;16.402;2023-11-19T12:35:46;10.80;;;8.10;;
13309;SDS011;6723;48.256;16.402;2023-11-19T12:41:02;11.33;;;8.70;;
13309;SDS011;6723;48.256;16.402;2023-11-19T12:43:32;9.17;;;8.00;;
13309;SDS011;6723;48.256;16.402;2023-11-19T12:45:59;10.83;;;9.07;;
13309;SDS011;6723;48.256;16.402;2023-11-19T12:48:25;15.27;;;9.63;;
13309;SDS011;6723;48.256;16.402;2023-11-19T12:50:57;10.20;;;8.67;;
13309;SDS011;6723;48.256;16.402;2023-11-19T12:53:25;11.47;;;9.00;;
13309;SDS011;6723;48.256;16.402;2023-11-19T12:55:52;10.53;;;8.97;;
13309;SDS011;6723;48.256;16.402;2023-11-19T12:58:33;10.87;;;8.83;;
13309;SDS011;6723;48.256;16.402;2023-11-19T13:01:01;11.00;;;9.10;;
13309;SDS011;6723;48.256;16.402;2023-11-19T13:03:31;11.53;;;9.27;;
13309;SDS011;6723;48.256;16.402;2023-11-19T13:06:05;13.10;;;9.33;;
13309;SDS011;6723;48.256;16.402;2023-11-19T13:09:06;13.40;;;9.70;;
13309;SDS011;6723;48.256;16.402;2023-11-19T13:11:34;11.53;;;9.43;;
13309;SDS011;6723;48.256;16.402;2023-11-19T13:14:04;11.97;;;9.80;;
13309;SDS011;6723;48.256;16.402;2023-11-19T13:16:33;12.80;;;9.67;;
13309;SDS011;6723;48.256;16.402;2023-11-19T13:19:02;12.70;;;9.80;;
13309;SDS011;6723;48.256;16.402;2023-11-19T13:21:29;11.13;;;9.53;;
13309;SDS011;6723;48.256;16.402;2023-11-19T13:23:55;13.87;;;10.43;;
13309;SDS011;6723;48.256;16.402;2023-11-19T13:26:21;12.40;;;10.07;;
13309;SDS011;6723;48.256;16.402;2023-11-19T13:28:48;12.07;;;9.93;;
13309;SDS011;6723;48.256;16.402;2023-11-19T13:31:14;12.73;;;10.27;;
13309;SDS011;6723;48.256;16.402;2023-11-19T13:33:40;12.63;;;10.10;;
13309;SDS011;6723;48.256;16.402;2023-11-19T13:36:07;13.87;;;10.83;;
13309;SDS011;6723;48.256;16.402;2023-11-19T13:38:33;15.10;;;10.73;;
13309;SDS011;6723;48.256;16.402;2023-11-19T13:41:00;20.17;;;10.77;;
13309;SDS011;6723;48.256;16.402;2023-11-19T13:43:27;13.23;;;10.77;;
13309;SDS011;6723;48.256;16.402;2023-11-19T13:45:56;13.73;;;10.67;;
13309;SDS011;6723;48.256;16.402;2023-11-19T13:48:23;14.87;;;10.73;;
13309;SDS011;6723;48.256;16.402;2023-11-19T13:50:49;14.20;;;11.47;;
13309;SDS011;6723;48.256;16.402;2023-11-19T13:53:16;15.30;;;11.53;;
13309;SDS011;6723;48.256;16.402;2023-11-19T13:55:45;14.47;;;11.93;;
13309;SDS011;6723;48.256;16.402;2023-11-19T13:58:10;14.43;;;11.80;;
13309;SDS011;6723;48.256;16.402;2023-11-19T14:00:36;15.13;;;11.90;;
13309;SDS011;6723;48.256;16.402;2023-11-19T14:03:03;13.40;;;10.77;;
13309;SDS011;6723;48.256;16.402;2023-11-19T14:05:29;15.87;;;11.80;;
13309;SDS011;6723;48.256;16.402;2023-11-19T14:07:55;15.77;;;11.60;;
13309;SDS011;6723;48.256;16.402;2023-11-19T14:10:21;16.30;;;12.90;;
13309;SDS011;6723;48.256;16.402;2023-11-19T14:12:48;14.57;;;11.10;;
13309;SDS011;6723;48.256;16.402;2023-11-19T14:15:15;15.33;;;11.90;;
13309;SDS011;6723;48.256;16.402;2023-11-19T14:17:44;15.47;;;10.70;;
13309;SDS011;6723;48.256;16.402;2023-11-19T14:20:10;15.87;;;12.00;;
13309;SDS011;6723;48.256;16.402;2023-11-19T14:22:40;15.87;;;11.67;;
13309;SDS011;6723;48.256;16.402;2023-11-19T14:25:09;14.07;;;11.23;;
13309;SDS011;6723;48.256;16.402;2023-11-19T14:27:40;14.63;;;11.27;;
13309;SDS011;6723;48.256;16.402;2023-11-19T14:30:08;14.60;;;11.37;;
13309;SDS011;6723;48.256;16.402;2023-11-19T14:32:39;16.27;;;11.80;;
13309;SDS011;6723;48.256;16.402;2023-11-19T14:35:07;15.10;;;11.47;;
13309;SDS011;6723;48.256;16.402;2023-11-19T14:37:33;15.27;;;11.90;;
13309;SDS011;6723;48.256;16.402;2023-11-19T14:39:59;15.07;;;11.73;;
13309;SDS011;6723;48.256;16.402;2023-11-19T14:42:27;14.30;;;11.83;;
13309;SDS011;6723;48.256;16.402;2023-11-19T14:44:52;14.53;;;11.33;;
13309;SDS011;6723;48.256;16.402;2023-11-19T14:47:19;15.23;;;11.70;;
13309;SDS011;6723;48.256;16.402;2023-11-19T14:49:45;15.83;;;11.13;;
13309;SDS011;6723;48.256;16.402;2023-11-19T14:52:11;15.20;;;11.67;;
13309;SDS011;6723;48.256;16.402;2023-11-19T14:54:37;15.83;;;12.30;;
13309;SDS011;6723;48.256;16.402;2023-11-19T14:57:04;15.13;;;11.50;;
13309;SDS011;6723;48.256;16.402;2023-11-19T14:59:31;15.97;;;12.00;;
13309;SDS011;6723;48.256;16.402;2023-11-19T15:01:58;17.33;;;12.33;;
13309;SDS011;6723;48.256;16.402;2023-11-19T15:04:26;17.33;;;12.90;;